地図

経路データ

SID SEASON NUMBER BASIN SUBBASIN NAME ISO_TIME NATURE LAT LON WMO_WIND WMO_PRES WMO_AGENCY TRACK_TYPE DIST2LAND LANDFALL IFLAG USA_AGENCY USA_ATCF_ID USA_LAT USA_LON USA_RECORD USA_STATUS USA_WIND USA_PRES USA_SSHS USA_R34_NE USA_R34_SE USA_R34_SW USA_R34_NW USA_R50_NE USA_R50_SE USA_R50_SW USA_R50_NW USA_R64_NE USA_R64_SE USA_R64_SW USA_R64_NW USA_POCI USA_ROCI USA_RMW USA_EYE TOKYO_LAT TOKYO_LON TOKYO_GRADE TOKYO_WIND TOKYO_PRES TOKYO_R50_DIR TOKYO_R50_LONG TOKYO_R50_SHORT TOKYO_R30_DIR TOKYO_R30_LONG TOKYO_R30_SHORT TOKYO_LAND CMA_LAT CMA_LON CMA_CAT CMA_WIND CMA_PRES HKO_LAT HKO_LON HKO_CAT HKO_WIND HKO_PRES NEWDELHI_LAT NEWDELHI_LON NEWDELHI_GRADE NEWDELHI_WIND NEWDELHI_PRES NEWDELHI_CI NEWDELHI_DP NEWDELHI_POCI REUNION_LAT REUNION_LON REUNION_TYPE REUNION_WIND REUNION_PRES REUNION_TNUM REUNION_CI REUNION_RMW REUNION_R34_NE REUNION_R34_SE REUNION_R34_SW REUNION_R34_NW REUNION_R50_NE REUNION_R50_SE REUNION_R50_SW REUNION_R50_NW REUNION_R64_NE REUNION_R64_SE REUNION_R64_SW REUNION_R64_NW BOM_LAT BOM_LON BOM_TYPE BOM_WIND BOM_PRES BOM_TNUM BOM_CI BOM_RMW BOM_R34_NE BOM_R34_SE BOM_R34_SW BOM_R34_NW BOM_R50_NE BOM_R50_SE BOM_R50_SW BOM_R50_NW BOM_R64_NE BOM_R64_SE BOM_R64_SW BOM_R64_NW BOM_ROCI BOM_POCI BOM_EYE BOM_POS_METHOD BOM_PRES_METHOD NADI_LAT NADI_LON NADI_CAT NADI_WIND NADI_PRES WELLINGTON_LAT WELLINGTON_LON WELLINGTON_WIND WELLINGTON_PRES DS824_LAT DS824_LON DS824_STAGE DS824_WIND DS824_PRES TD9636_LAT TD9636_LON TD9636_STAGE TD9636_WIND TD9636_PRES TD9635_LAT TD9635_LON TD9635_WIND TD9635_PRES TD9635_ROCI NEUMANN_LAT NEUMANN_LON NEUMANN_CLASS NEUMANN_WIND NEUMANN_PRES MLC_LAT MLC_LON MLC_CLASS MLC_WIND MLC_PRES USA_GUST BOM_GUST BOM_GUST_PER REUNION_GUST REUNION_GUST_PER USA_SEAHGT USA_SEARAD_NE USA_SEARAD_SE USA_SEARAD_SW USA_SEARAD_NW STORM_SPEED STORM_DIR
1900283N21269 1900 35 NA GM NOT_NAMED 1900-10-10 06:00:00 TS 21.0000 -91.4000 35 hurdat_atl main 106 95 O_____________ hurdat_atl AL061900 21.0000 -91.4000 TS 35 0 10 25
1900283N21269 1900 35 NA GM NOT_NAMED 1900-10-10 09:00:00 TS 21.4451 -91.1853 main 99 99 P_____________ AL061900 21.4451 -91.1853 TS 35 0 11 20
1900283N21269 1900 35 NA GM NOT_NAMED 1900-10-10 12:00:00 TS 22.0000 -91.0000 35 hurdat_atl main 123 123 O_____________ hurdat_atl AL061900 22.0000 -91.0000 TS 35 0 13 13
1900283N21269 1900 35 NA GM NOT_NAMED 1900-10-10 15:00:00 TS 22.7274 -90.8572 main 189 189 P_____________ AL061900 22.7274 -90.8572 TS 35 0 15 10
1900283N21269 1900 35 NA GM NOT_NAMED 1900-10-10 18:00:00 TS 23.5000 -90.7000 35 hurdat_atl main 269 269 O_____________ hurdat_atl AL061900 23.5000 -90.7000 TS 35 0 15 13
1900283N21269 1900 35 NA GM NOT_NAMED 1900-10-10 21:00:00 TS 24.1649 -90.4871 main 340 340 P_____________ AL061900 24.1649 -90.4871 TS 35 0 14 19
1900283N21269 1900 35 NA GM NOT_NAMED 1900-10-11 00:00:00 TS 24.8000 -90.2000 35 hurdat_atl main 401 401 O_____________ hurdat_atl AL061900 24.8000 -90.2000 TS 35 0 14 25
1900283N21269 1900 35 NA GM NOT_NAMED 1900-10-11 03:00:00 TS 25.4575 -89.8299 main 396 325 P_____________ AL061900 25.4575 -89.8299 TS 37 0 15 29
1900283N21269 1900 35 NA GM NOT_NAMED 1900-10-11 06:00:00 TS 26.1000 -89.4000 40 hurdat_atl main 325 256 O_____________ hurdat_atl AL061900 26.1000 -89.4000 TS 40 0 14 30
1900283N21269 1900 35 NA GM NOT_NAMED 1900-10-11 09:00:00 TS 26.7064 -89.0308 main 257 198 P_____________ AL061900 26.7064 -89.0308 TS 40 0 14 34
1900283N21269 1900 35 NA GM NOT_NAMED 1900-10-11 12:00:00 TS 27.3000 -88.5000 40 hurdat_atl main 198 174 O_____________ hurdat_atl AL061900 27.3000 -88.5000 TS 40 0 17 45
1900283N21269 1900 35 NA GM NOT_NAMED 1900-10-11 15:00:00 TS 27.9372 -87.6632 main 183 183 P_____________ AL061900 27.9372 -87.6632 TS 40 0 21 54
1900283N21269 1900 35 NA GM NOT_NAMED 1900-10-11 18:00:00 TS 28.5000 -86.6000 40 hurdat_atl main 177 89 O_____________ hurdat_atl AL061900 28.5000 -86.6000 TS 40 0 22 65
1900283N21269 1900 35 NA GM NOT_NAMED 1900-10-11 21:00:00 TS 28.8953 -85.3721 main 89 67 P_____________ AL061900 28.8953 -85.3721 TS 40 0 22 72
1900283N21269 1900 35 NA GM NOT_NAMED 1900-10-12 00:00:00 TS 29.2000 -84.2000 40 hurdat_atl main 78 0 O_____________ hurdat_atl AL061900 29.2000 -84.2000 TS 40 0 19 72
1900283N21269 1900 35 NA GM NOT_NAMED 1900-10-12 03:00:00 TS 29.5000 -83.3000 40 hurdat_atl main 0 0 O_____________ hurdat_atl AL061900 29.5000 -83.3000 L TS 40 0 18 63
1900283N21269 1900 35 NA NA NOT_NAMED 1900-10-12 06:00:00 TS 30.0000 -82.4000 35 hurdat_atl main 0 0 O_____________ hurdat_atl AL061900 30.0000 -82.4000 TS 35 0 18 55
1900283N21269 1900 35 NA NA NOT_NAMED 1900-10-12 09:00:00 TS 30.5393 -81.5721 main 0 0 P_____________ AL061900 30.5393 -81.5721 TS 35 0 18 51
1900283N21269 1900 35 NA NA NOT_NAMED 1900-10-12 12:00:00 ET 31.1000 -80.8000 35 hurdat_atl main 52 52 O_____________ hurdat_atl AL061900 31.1000 -80.8000 EX 35 -4 17 50
1900283N21269 1900 35 NA NA NOT_NAMED 1900-10-12 15:00:00 ET 31.6422 -80.0266 main 91 72 P_____________ AL061900 31.6422 -80.0266 EX 35 -4 17 49
1900283N21269 1900 35 NA NA NOT_NAMED 1900-10-12 18:00:00 ET 32.2000 -79.3000 35 hurdat_atl main 79 64 O_____________ hurdat_atl AL061900 32.2000 -79.3000 EX 35 -4 16 46
1900283N21269 1900 35 NA NA NOT_NAMED 1900-10-12 21:00:00 ET 32.7918 -78.6414 main 71 55 P_____________ AL061900 32.7918 -78.6414 EX 35 -4 16 42
1900283N21269 1900 35 NA NA NOT_NAMED 1900-10-13 00:00:00 ET 33.4000 -78.0000 35 hurdat_atl main 55 35 O_____________ hurdat_atl AL061900 33.4000 -78.0000 EX 35 -4 17 43
1900283N21269 1900 35 NA NA NOT_NAMED 1900-10-13 03:00:00 ET 34.0000 -77.2920 main 49 11 P_____________ AL061900 34.0000 -77.2920 EX 35 -4 17 44
1900283N21269 1900 35 NA NA NOT_NAMED 1900-10-13 06:00:00 ET 34.6000 -76.6000 35 hurdat_atl main 11 0 O_____________ hurdat_atl AL061900 34.6000 -76.6000 EX 35 -4 16 43
1900283N21269 1900 35 NA NA NOT_NAMED 1900-10-13 09:00:00 ET 35.2076 -75.9326 main 28 8 P_____________ AL061900 35.2076 -75.9326 EX 35 -4 16 39
1900283N21269 1900 35 NA NA NOT_NAMED 1900-10-13 12:00:00 ET 35.8000 -75.4000 35 hurdat_atl main 8 8 O_____________ hurdat_atl AL061900 35.8000 -75.4000 EX 35 -4 13 31
1900283N21269 1900 35 NA NA NOT_NAMED 1900-10-13 15:00:00 ET 36.3570 -75.0886 main 58 58 P_____________ AL061900 36.3570 -75.0886 EX 35 -4 12 20
1900283N21269 1900 35 NA NA NOT_NAMED 1900-10-13 18:00:00 ET 36.9000 -74.9000 35 hurdat_atl main 91 82 O_____________ hurdat_atl AL061900 36.9000 -74.9000 EX 35 -4 11 16
1900283N21269 1900 35 NA NA NOT_NAMED 1900-10-13 21:00:00 ET 37.4424 -74.6920 main 83 62 P_____________ AL061900 37.4424 -74.6920 EX 35 -4 11 16
1900283N21269 1900 35 NA NA NOT_NAMED 1900-10-14 00:00:00 ET 38.0000 -74.5000 35 hurdat_atl main 62 56 O_____________ hurdat_atl AL061900 38.0000 -74.5000 EX 35 -4 12 15
1900283N21269 1900 35 NA NA NOT_NAMED 1900-10-14 03:00:00 ET 38.6000 -74.2998 main 61 37 P_____________ AL061900 38.6000 -74.2998 EX 35 -4 12 15
1900283N21269 1900 35 NA NA NOT_NAMED 1900-10-14 06:00:00 ET 39.2000 -74.1000 35 hurdat_atl main 37 17 O_____________ hurdat_atl AL061900 39.2000 -74.1000 EX 35 -4 12 13
1900283N21269 1900 35 NA NA NOT_NAMED 1900-10-14 09:00:00 ET 39.7194 -73.9646 main 17 13 P_____________ AL061900 39.7194 -73.9646 EX 35 -4 11 16
1900283N21269 1900 35 NA NA NOT_NAMED 1900-10-14 12:00:00 ET 40.3000 -73.7000 35 hurdat_atl main 25 0 O_____________ hurdat_atl AL061900 40.3000 -73.7000 EX 35 -4 14 26
1900283N21269 1900 35 NA NA NOT_NAMED 1900-10-14 15:00:00 ET 41.0176 -73.1459 main 11 0 P_____________ AL061900 41.0176 -73.1459 EX 32 -4 19 32
1900283N21269 1900 35 NA NA NOT_NAMED 1900-10-14 18:00:00 ET 41.9000 -72.4000 30 hurdat_atl main 0 0 O_____________ hurdat_atl AL061900 41.9000 -72.4000 EX 30 -4 22 31
1900283N21269 1900 35 NA NA NOT_NAMED 1900-10-14 21:00:00 ET 42.9170 -71.6063 main 0 0 P_____________ AL061900 42.9170 -71.6063 EX 30 -4 25 30
1900283N21269 1900 35 NA NA NOT_NAMED 1900-10-15 00:00:00 ET 44.1000 -70.7000 30 hurdat_atl main 0 0 O_____________ hurdat_atl AL061900 44.1000 -70.7000 EX 30 -4 28 29
1900283N21269 1900 35 NA NA NOT_NAMED 1900-10-15 03:00:00 ET 45.3967 -69.7054 main 0 0 P_____________ AL061900 45.3967 -69.7054 EX 27 -4 31 29
1900283N21269 1900 35 NA NA NOT_NAMED 1900-10-15 06:00:00 ET 46.8000 -68.6000 25 hurdat_atl main 0 0 O_____________ hurdat_atl AL061900 46.8000 -68.6000 EX 25 -4 32 30
1900283N21269 1900 35 NA NA NOT_NAMED 1900-10-15 09:00:00 ET 48.2202 -67.3615 main 0 0 P_____________ AL061900 48.2202 -67.3615 EX 25 -4 33 30
1900283N21269 1900 35 NA NA NOT_NAMED 1900-10-15 12:00:00 ET 49.7000 -66.1000 25 hurdat_atl main 52 0 O_____________ hurdat_atl AL061900 49.7000 -66.1000 EX 25 -4 34 28
1900283N21269 1900 35 NA NA NOT_NAMED 1900-10-15 15:00:00 ET 51.2360 -64.9334 main 0 0 P_____________ AL061900 51.2360 -64.9334 EX 25 -4 34 25
1900283N21269 1900 35 NA NA NOT_NAMED 1900-10-15 18:00:00 ET 52.8000 -63.8000 25 hurdat_atl main 0 O_____________ hurdat_atl AL061900 52.8000 -63.8000 EX 25 -4 34 24

IBTrACS Databaseについて

本データベースは、米国NOAAが公開する1842年以降の世界の熱帯低気圧のベストトラックデータアーカイブInternational Best Track Archive for Climate Stewardship (IBTrACS)を、ウェブで閲覧しやすい形式に変換したものです。

最終更新日:2021-10-25